createdAt,value
2022-12-19T00:00:06.759Z,-4.92
2022-12-19T00:02:38.026Z,-4.89
2022-12-19T00:05:07.343Z,-4.92
2022-12-19T00:07:34.051Z,-4.86
2022-12-19T00:10:00.671Z,-4.90
2022-12-19T00:12:27.333Z,-4.91
2022-12-19T00:14:53.992Z,-4.92
2022-12-19T00:17:21.452Z,-4.90
2022-12-19T00:19:48.113Z,-4.79
2022-12-19T00:22:23.542Z,-4.74
2022-12-19T00:24:50.415Z,-4.73
2022-12-19T00:27:17.115Z,-4.72
2022-12-19T00:29:43.794Z,-4.65
2022-12-19T00:32:10.409Z,-4.72
2022-12-19T00:34:39.992Z,-4.58
2022-12-19T00:37:06.626Z,-4.14
2022-12-19T00:39:34.603Z,-4.04
2022-12-19T00:42:01.490Z,-4.30
2022-12-19T00:44:28.183Z,-4.36
2022-12-19T00:46:54.860Z,-4.39
2022-12-19T00:49:21.571Z,-4.52
2022-12-19T00:51:48.306Z,-4.58
2022-12-19T00:54:15.570Z,-4.55
2022-12-19T00:56:43.728Z,-4.48
2022-12-19T00:59:10.694Z,-4.51
2022-12-19T01:01:39.962Z,-4.40
2022-12-19T01:06:59.775Z,-4.26
2022-12-19T01:09:29.712Z,-4.16
2022-12-19T01:12:16.437Z,-4.04
2022-12-19T01:14:43.105Z,-3.93
2022-12-19T01:17:09.763Z,-3.81
2022-12-19T01:19:41.882Z,-3.73
2022-12-19T01:22:11.276Z,-3.59
2022-12-19T01:24:38.064Z,-3.51
2022-12-19T01:27:06.150Z,-3.64
2022-12-19T01:29:32.950Z,-3.58
2022-12-19T01:32:01.540Z,-3.56
2022-12-19T01:34:30.784Z,-3.59
2022-12-19T01:36:57.454Z,-3.49
2022-12-19T01:39:24.056Z,-3.45
2022-12-19T01:41:53.485Z,-3.41
2022-12-19T01:44:24.640Z,-3.38
2022-12-19T01:46:54.190Z,-3.25
2022-12-19T01:49:26.685Z,-3.17
2022-12-19T01:51:56.550Z,-3.11
2022-12-19T01:54:26.969Z,-3.08
2022-12-19T01:56:57.433Z,-3.06
2022-12-19T01:59:29.730Z,-2.99
2022-12-19T02:02:04.003Z,-2.89
2022-12-19T02:04:32.715Z,-2.83
2022-12-19T02:07:04.270Z,-2.75
2022-12-19T02:09:44.767Z,-2.61
2022-12-19T02:12:11.503Z,-2.62
2022-12-19T02:14:40.286Z,-2.39
2022-12-19T02:17:14.004Z,-2.35
2022-12-19T02:20:17.869Z,-2.20
2022-12-19T02:22:59.814Z,-2.15
2022-12-19T02:25:43.630Z,-2.19
2022-12-19T02:28:35.412Z,-2.15
2022-12-19T02:31:19.370Z,-2.18
2022-12-19T02:33:56.425Z,-2.17
2022-12-19T02:36:34.902Z,-2.15
2022-12-19T02:39:10.765Z,-2.23
2022-12-19T02:41:43.494Z,-2.22
2022-12-19T02:44:14.002Z,-2.30
2022-12-19T02:46:44.657Z,-2.37
2022-12-19T02:49:13.099Z,-2.43
2022-12-19T02:51:47.691Z,-2.45
2022-12-19T02:54:15.617Z,-2.39
2022-12-19T02:56:50.586Z,-2.34
2022-12-19T02:59:39.590Z,-2.35
2022-12-19T03:02:15.300Z,-2.36
2022-12-19T03:04:52.530Z,-2.28
2022-12-19T03:07:29.197Z,-2.36
2022-12-19T03:10:05.289Z,-2.57
2022-12-19T03:12:37.475Z,-2.89
2022-12-19T03:15:05.511Z,-3.09
2022-12-19T03:17:37.391Z,-3.22
2022-12-19T03:20:09.028Z,-3.25
2022-12-19T03:22:35.843Z,-3.32
2022-12-19T03:25:03.162Z,-3.33
2022-12-19T03:27:36.405Z,-3.42
2022-12-19T03:30:07.495Z,-3.39
2022-12-19T03:32:38.655Z,-3.33
2022-12-19T03:35:10.698Z,-3.37
2022-12-19T03:37:40.976Z,-3.27
2022-12-19T03:40:11.298Z,-3.40
2022-12-19T03:42:59.832Z,-3.39
2022-12-19T03:45:33.740Z,-3.30
2022-12-19T03:48:07.859Z,-3.33
2022-12-19T03:50:46.748Z,-3.39
2022-12-19T03:53:24.697Z,-3.43
2022-12-19T03:55:59.469Z,-3.44
2022-12-19T03:58:31.530Z,-3.44
2022-12-19T04:01:00.786Z,-3.38
2022-12-19T04:03:30.561Z,-3.27
2022-12-19T04:05:59.412Z,-3.23
2022-12-19T04:08:28.099Z,-3.05
2022-12-19T04:10:59.349Z,-2.85
2022-12-19T04:13:34.924Z,-2.35
2022-12-19T04:16:08.827Z,-2.06
2022-12-19T04:18:37.389Z,-1.83
2022-12-19T04:21:09.485Z,-1.69
2022-12-19T04:23:41.469Z,-1.63
2022-12-19T04:26:10.097Z,-1.48
2022-12-19T04:28:41.919Z,-1.28
2022-12-19T04:31:13.211Z,-1.19
2022-12-19T04:33:41.483Z,-1.02
2022-12-19T04:36:10.176Z,-1.00
2022-12-19T04:38:36.927Z,-0.99
2022-12-19T04:41:03.692Z,-0.98
2022-12-19T04:43:30.342Z,-1.05
2022-12-19T04:45:57.799Z,-1.20
2022-12-19T04:48:28.992Z,-1.27
2022-12-19T04:50:57.104Z,-1.29
2022-12-19T04:53:24.025Z,-1.28
2022-12-19T04:55:50.663Z,-1.19
2022-12-19T04:58:21.621Z,-1.15
2022-12-19T05:00:49.028Z,-1.00
2022-12-19T05:03:15.810Z,-0.85
2022-12-19T05:05:42.579Z,-0.79
2022-12-19T05:08:11.357Z,-0.66
2022-12-19T05:10:38.280Z,-0.61
2022-12-19T05:13:04.965Z,-0.56
2022-12-19T05:15:31.916Z,-0.52
2022-12-19T05:17:58.736Z,-0.45
2022-12-19T05:20:25.548Z,-0.43
2022-12-19T05:22:52.144Z,-0.46
2022-12-19T05:25:20.089Z,-0.42
2022-12-19T05:27:46.757Z,-0.41
2022-12-19T05:30:13.944Z,-0.36
2022-12-19T05:32:40.593Z,-0.30
2022-12-19T05:35:08.320Z,-0.28
2022-12-19T05:37:37.000Z,-0.30
2022-12-19T05:40:04.255Z,-0.22
2022-12-19T05:42:32.257Z,-0.21
2022-12-19T05:44:58.932Z,-0.22
2022-12-19T05:47:25.573Z,-0.15
2022-12-19T05:49:52.272Z,-0.15
2022-12-19T05:52:18.906Z,-0.16
2022-12-19T05:54:46.007Z,-0.18
2022-12-19T05:57:13.003Z,-0.15
2022-12-19T05:59:41.029Z,-0.13
2022-12-19T06:02:07.947Z,-0.08
2022-12-19T06:04:37.725Z,-0.12
2022-12-19T06:07:04.474Z,-0.10
2022-12-19T06:09:31.115Z,-0.13
2022-12-19T06:11:57.785Z,-0.15
2022-12-19T06:14:24.421Z,-0.20
2022-12-19T06:16:52.966Z,-0.23
2022-12-19T06:19:19.761Z,-0.19
2022-12-19T06:21:48.524Z,-0.23
2022-12-19T06:24:15.479Z,-0.20
2022-12-19T06:26:42.593Z,-0.23
2022-12-19T06:29:09.646Z,-0.27
2022-12-19T06:31:36.361Z,-0.25
2022-12-19T06:34:04.539Z,-0.27
2022-12-19T06:36:31.557Z,-0.28
2022-12-19T06:38:58.981Z,-0.29
2022-12-19T06:41:58.771Z,-0.25
2022-12-19T06:44:25.526Z,-0.26
2022-12-19T06:46:53.101Z,-0.27
2022-12-19T06:49:21.228Z,-0.32
2022-12-19T06:51:47.998Z,-0.21
2022-12-19T06:54:15.178Z,-0.20
2022-12-19T06:56:44.062Z,-0.17
2022-12-19T06:59:14.338Z,-0.26
2022-12-19T07:01:52.822Z,-0.19
2022-12-19T07:04:26.877Z,-0.09
2022-12-19T07:06:55.335Z,-0.10
2022-12-19T07:09:22.617Z,-0.08
2022-12-19T07:11:49.244Z,0.01
2022-12-19T07:14:16.227Z,0.01
2022-12-19T07:16:43.105Z,-0.03
2022-12-19T07:19:10.363Z,-0.05
2022-12-19T07:21:41.199Z,-0.02
2022-12-19T07:24:09.215Z,0.02
2022-12-19T07:26:38.560Z,0.09
2022-12-19T07:29:06.320Z,0.10
2022-12-19T07:31:36.220Z,0.17
2022-12-19T07:34:03.120Z,0.25
2022-12-19T07:36:32.583Z,0.32
2022-12-19T07:39:01.010Z,0.31
2022-12-19T07:41:28.286Z,0.42
2022-12-19T07:43:54.958Z,0.38
2022-12-19T07:46:22.374Z,0.44
2022-12-19T07:48:49.141Z,0.44
2022-12-19T07:51:15.993Z,0.51
2022-12-19T07:53:42.902Z,0.57
2022-12-19T07:56:11.093Z,0.59
2022-12-19T07:58:40.768Z,0.77
2022-12-19T08:01:12.308Z,0.72
2022-12-19T08:03:39.325Z,0.69
2022-12-19T08:06:09.423Z,0.77
2022-12-19T08:08:37.980Z,0.75
2022-12-19T08:11:14.578Z,0.85
2022-12-19T08:13:46.490Z,0.96
2022-12-19T08:16:15.325Z,-147.88
2022-12-19T08:18:42.552Z,-147.88
2022-12-19T08:21:10.992Z,-147.88
2022-12-19T08:23:39.106Z,1.01
2022-12-19T08:26:09.133Z,0.94
2022-12-19T08:28:39.573Z,0.97
2022-12-19T08:31:07.944Z,1.00
2022-12-19T08:33:34.981Z,0.97
2022-12-19T08:36:04.696Z,0.98
2022-12-19T08:38:32.242Z,0.92
2022-12-19T08:40:59.385Z,0.92
2022-12-19T08:43:27.276Z,1.02
2022-12-19T08:45:55.673Z,1.01
2022-12-19T08:48:23.862Z,0.82
2022-12-19T08:50:52.101Z,0.46
2022-12-19T08:53:24.296Z,0.13
2022-12-19T08:55:55.356Z,0.01
2022-12-19T08:58:22.066Z,-0.10
2022-12-19T09:00:55.475Z,-0.10
2022-12-19T09:03:26.300Z,-0.05
2022-12-19T09:06:07.004Z,-0.06
2022-12-19T09:08:36.763Z,-0.07
2022-12-19T09:11:05.711Z,-0.03
2022-12-19T09:13:33.762Z,-0.05
2022-12-19T09:16:01.794Z,-0.07
2022-12-19T09:18:31.668Z,-0.12
2022-12-19T09:21:00.048Z,-0.28
2022-12-19T09:23:29.398Z,-0.18
2022-12-19T09:25:57.641Z,-0.19
2022-12-19T09:28:27.587Z,-0.15
2022-12-19T09:30:56.259Z,-147.88
2022-12-19T09:33:24.242Z,-0.19
2022-12-19T09:35:55.436Z,-0.11
2022-12-19T09:38:26.095Z,0.12
2022-12-19T09:41:08.213Z,0.26
2022-12-19T09:43:51.184Z,0.39
2022-12-19T09:46:20.456Z,0.43
2022-12-19T09:48:55.174Z,0.52
2022-12-19T09:51:34.723Z,0.65
2022-12-19T09:54:09.404Z,0.72
2022-12-19T09:56:46.472Z,0.71
2022-12-19T09:59:22.569Z,0.90
2022-12-19T10:01:58.817Z,-147.88
2022-12-19T10:04:29.783Z,0.90
2022-12-19T10:07:20.416Z,0.64
2022-12-19T10:12:33.128Z,0.52
2022-12-19T10:12:50.960Z,0.71
2022-12-19T10:15:26.174Z,0.73
2022-12-19T10:18:32.218Z,0.44
2022-12-19T10:21:06.070Z,0.39
2022-12-19T10:24:01.146Z,0.33
2022-12-19T10:26:34.918Z,0.28
2022-12-19T10:29:19.408Z,0.15
2022-12-19T10:31:55.324Z,0.08
2022-12-19T10:34:24.676Z,0.13
2022-12-19T10:37:24.328Z,0.04
2022-12-19T10:39:57.617Z,0.01
2022-12-19T10:42:35.195Z,-0.10
2022-12-19T10:45:10.383Z,0.02
2022-12-19T10:47:37.839Z,0.11
2022-12-19T10:50:09.590Z,0.15
2022-12-19T10:52:52.242Z,0.23
2022-12-19T10:55:36.298Z,0.25
2022-12-19T10:58:18.478Z,0.28
2022-12-19T11:01:12.613Z,0.36
2022-12-19T11:03:42.215Z,0.75
2022-12-19T11:06:44.873Z,0.74
2022-12-19T11:09:25.051Z,0.83
2022-12-19T11:14:30.819Z,0.97
2022-12-19T11:20:39.514Z,1.10
2022-12-19T11:27:13.193Z,1.25
2022-12-19T11:29:19.366Z,1.38
2022-12-19T11:29:43.196Z,1.50
2022-12-19T11:30:47.445Z,-147.88
2022-12-19T11:32:41.206Z,1.01
2022-12-19T11:35:18.892Z,1.08
2022-12-19T11:37:55.210Z,1.28
2022-12-19T11:40:34.801Z,1.20
2022-12-19T11:43:43.334Z,1.17
2022-12-19T11:46:01.876Z,1.02
2022-12-19T11:48:37.774Z,0.87
2022-12-19T11:51:15.816Z,0.77
2022-12-19T11:53:51.435Z,0.76
2022-12-19T11:56:23.534Z,0.78
2022-12-19T11:58:54.324Z,0.88
2022-12-19T12:01:40.464Z,0.97
2022-12-19T12:04:37.357Z,1.56
2022-12-19T12:07:08.439Z,2.06
2022-12-19T12:15:34.544Z,2.30
2022-12-19T12:22:57.287Z,2.49
2022-12-19T12:24:54.924Z,2.62
2022-12-19T12:30:59.924Z,2.70
2022-12-19T12:31:07.745Z,2.76
2022-12-19T12:31:44.255Z,2.95
2022-12-19T12:31:44.391Z,2.97
2022-12-19T12:31:58.104Z,2.85
2022-12-19T12:35:38.454Z,3.01
2022-12-19T12:39:53.346Z,3.06
2022-12-19T12:42:37.727Z,3.13
2022-12-19T12:45:17.725Z,3.30
2022-12-19T12:47:48.274Z,3.32
2022-12-19T12:50:17.614Z,3.36
2022-12-19T12:52:49.253Z,3.41
2022-12-19T12:55:21.181Z,3.37
2022-12-19T12:57:48.350Z,3.44
2022-12-19T13:00:25.888Z,3.54
2022-12-19T13:03:04.840Z,3.50
2022-12-19T13:05:40.603Z,-147.88
2022-12-19T13:08:46.623Z,-147.88
2022-12-19T13:11:52.802Z,-147.88
2022-12-19T13:14:45.175Z,-147.88
2022-12-19T13:17:13.367Z,-147.88
2022-12-19T13:19:53.614Z,-147.88
2022-12-19T13:22:37.709Z,-147.88
2022-12-19T13:25:45.259Z,-147.88
2022-12-19T13:28:38.584Z,-147.88
2022-12-19T13:31:23.307Z,-147.88
2022-12-19T13:34:19.703Z,-147.88
2022-12-19T13:39:49.812Z,-147.88
2022-12-19T13:40:09.170Z,-147.88
2022-12-19T13:43:10.019Z,-147.88
2022-12-19T13:45:48.321Z,-147.88
2022-12-19T13:48:21.372Z,-147.88
2022-12-19T13:50:49.471Z,-147.88
2022-12-19T13:53:19.302Z,-147.88
2022-12-19T13:55:47.322Z,-147.88
2022-12-19T13:58:28.677Z,-147.88
2022-12-19T14:01:04.786Z,-147.88
2022-12-19T14:03:40.028Z,-147.88
2022-12-19T14:06:16.720Z,-147.88
2022-12-19T14:09:46.210Z,-147.88
2022-12-19T14:12:19.190Z,-147.88
2022-12-19T14:14:47.482Z,3.50
2022-12-19T14:17:18.400Z,-147.88
2022-12-19T14:19:48.001Z,-147.88
2022-12-19T14:22:25.827Z,2.86
2022-12-19T14:25:44.126Z,2.67
2022-12-19T14:28:18.863Z,2.55
2022-12-19T14:30:40.905Z,2.52
2022-12-19T14:33:39.480Z,2.84
2022-12-19T14:36:14.696Z,3.23
2022-12-19T14:39:26.669Z,3.44
2022-12-19T14:42:07.673Z,3.65
2022-12-19T14:52:34.174Z,-147.88
2022-12-19T14:54:10.026Z,-147.88
2022-12-19T14:54:24.626Z,-147.88
2022-12-19T14:54:45.180Z,-147.88
2022-12-19T14:59:00.780Z,-147.88
2022-12-19T15:01:29.990Z,-147.88
2022-12-19T15:04:48.952Z,-147.88
2022-12-19T15:07:06.860Z,-147.88
2022-12-19T15:11:03.854Z,-147.88
2022-12-19T15:14:57.777Z,3.94
2022-12-19T15:15:45.661Z,3.90
2022-12-19T15:18:24.745Z,3.83
2022-12-19T15:20:53.533Z,3.80
2022-12-19T15:23:23.485Z,3.70
2022-12-19T15:26:08.452Z,3.68
2022-12-19T15:28:40.628Z,3.58
2022-12-19T15:31:17.234Z,3.53
2022-12-19T15:34:14.471Z,3.55
2022-12-19T15:36:30.795Z,3.50
2022-12-19T15:38:58.941Z,3.47
2022-12-19T15:41:26.021Z,3.47
2022-12-19T15:44:03.838Z,3.44
2022-12-19T15:46:32.377Z,3.36
2022-12-19T15:48:59.168Z,3.34
2022-12-19T15:51:25.832Z,3.33
2022-12-19T15:53:52.522Z,3.33
2022-12-19T15:56:27.224Z,3.31
2022-12-19T15:58:56.691Z,3.39
2022-12-19T16:01:23.803Z,3.43
2022-12-19T16:03:51.120Z,3.41
2022-12-19T16:06:18.572Z,3.40
2022-12-19T16:08:45.382Z,3.33
2022-12-19T16:11:18.567Z,3.24
2022-12-19T16:13:51.282Z,3.28
2022-12-19T16:16:18.557Z,3.15
2022-12-19T16:18:45.804Z,3.12
2022-12-19T16:21:19.157Z,3.30
2022-12-19T16:23:46.209Z,3.41
2022-12-19T16:26:23.995Z,3.58
2022-12-19T16:28:52.289Z,3.66
2022-12-19T16:31:23.688Z,3.72
2022-12-19T16:33:50.625Z,3.78
2022-12-19T16:36:17.346Z,3.86
2022-12-19T16:38:43.986Z,3.86
2022-12-19T16:41:15.858Z,3.85
2022-12-19T16:43:44.781Z,3.91
2022-12-19T16:46:17.564Z,3.79
2022-12-19T16:48:44.658Z,3.73
2022-12-19T16:51:18.685Z,3.66
2022-12-19T16:53:47.393Z,3.60
2022-12-19T16:56:23.326Z,3.52
2022-12-19T16:58:50.726Z,3.58
2022-12-19T17:01:19.329Z,3.65
2022-12-19T17:03:46.493Z,3.62
2022-12-19T17:06:16.220Z,3.72
2022-12-19T17:08:43.045Z,3.72
2022-12-19T17:11:18.333Z,3.69
2022-12-19T17:13:47.728Z,3.63
2022-12-19T17:16:14.652Z,3.56
2022-12-19T17:18:45.009Z,3.63
2022-12-19T17:21:16.662Z,3.61
2022-12-19T17:23:43.722Z,3.74
2022-12-19T17:26:17.304Z,3.83
2022-12-19T17:28:48.108Z,4.00
2022-12-19T17:31:22.188Z,4.04
2022-12-19T17:33:50.411Z,4.10
2022-12-19T17:36:21.308Z,4.20
2022-12-19T17:38:51.712Z,4.21
2022-12-19T17:41:18.302Z,4.23
2022-12-19T17:43:45.128Z,4.20
2022-12-19T17:46:17.952Z,4.21
2022-12-19T17:48:45.310Z,4.11
2022-12-19T17:51:13.907Z,4.16
2022-12-19T17:53:40.694Z,4.15
2022-12-19T17:56:12.512Z,4.13
2022-12-19T17:58:39.236Z,4.01
2022-12-19T18:01:06.362Z,3.95
2022-12-19T18:03:33.371Z,4.01
2022-12-19T18:06:00.100Z,4.02
2022-12-19T18:08:30.110Z,3.98
2022-12-19T18:10:59.475Z,3.95
2022-12-19T18:13:27.205Z,4.08
2022-12-19T18:15:57.753Z,4.09
2022-12-19T18:18:28.426Z,4.19
2022-12-19T18:20:55.830Z,4.09
2022-12-19T18:23:23.785Z,4.11
2022-12-19T18:25:57.597Z,4.17
2022-12-19T18:28:27.992Z,4.18
2022-12-19T18:30:58.462Z,4.19
2022-12-19T18:33:25.424Z,4.14
2022-12-19T18:35:52.453Z,4.18
2022-12-19T18:38:21.054Z,4.18
2022-12-19T18:40:49.472Z,4.16
2022-12-19T18:43:18.975Z,4.19
2022-12-19T18:45:49.042Z,4.14
2022-12-19T18:48:23.324Z,4.10
2022-12-19T18:50:50.211Z,4.18
2022-12-19T18:53:21.680Z,4.64
2022-12-19T18:55:49.116Z,4.42
2022-12-19T18:58:17.242Z,4.18
2022-12-19T19:00:44.796Z,-147.88
2022-12-19T19:03:15.543Z,-147.88
2022-12-19T19:05:43.843Z,3.87
2022-12-19T19:08:17.249Z,3.73
2022-12-19T19:10:46.473Z,3.67
2022-12-19T19:13:13.971Z,3.57
2022-12-19T19:15:47.206Z,3.52
2022-12-19T19:18:15.977Z,3.52
2022-12-19T19:20:44.985Z,3.48
2022-12-19T19:23:14.148Z,3.48
2022-12-19T19:25:41.120Z,-147.88
2022-12-19T19:28:10.118Z,3.53
2022-12-19T19:30:38.537Z,3.79
2022-12-19T19:33:13.372Z,3.77
2022-12-19T19:35:43.810Z,3.87
2022-12-19T19:38:11.838Z,3.87
2022-12-19T19:40:38.662Z,3.94
2022-12-19T19:43:07.213Z,4.29
2022-12-19T19:45:38.152Z,5.15
2022-12-19T19:48:11.588Z,5.67
2022-12-19T19:50:39.552Z,-147.88
2022-12-19T19:53:07.300Z,-147.88
2022-12-19T19:55:34.316Z,-147.88
2022-12-19T19:58:01.287Z,-147.88
2022-12-19T20:00:28.169Z,-147.88
2022-12-19T20:02:55.093Z,-147.88
2022-12-19T20:05:23.520Z,-147.88
2022-12-19T20:07:50.550Z,-147.88
2022-12-19T20:10:17.407Z,-147.88
2022-12-19T20:12:44.656Z,-147.88
2022-12-19T20:15:11.993Z,-147.88
2022-12-19T20:17:39.611Z,-147.88
2022-12-19T20:20:08.536Z,-147.88
2022-12-19T20:22:36.863Z,-147.88
2022-12-19T20:25:04.503Z,-147.88
2022-12-19T20:27:32.035Z,-147.88
2022-12-19T20:29:58.704Z,-147.88
2022-12-19T20:32:25.599Z,-147.88
2022-12-19T20:34:52.413Z,-147.88
2022-12-19T20:37:19.197Z,-147.88
2022-12-19T20:39:47.259Z,-147.88
2022-12-19T20:42:13.930Z,-147.88
2022-12-19T20:44:40.745Z,-147.88
2022-12-19T20:47:07.506Z,-147.88
2022-12-19T20:49:34.472Z,-147.88
2022-12-19T20:52:01.712Z,-147.88
2022-12-19T20:54:28.445Z,-147.88
2022-12-19T20:56:56.824Z,-147.88
2022-12-19T20:59:23.714Z,-147.88
2022-12-19T21:01:50.488Z,-147.88
2022-12-19T21:04:18.907Z,-147.88
2022-12-19T21:06:45.702Z,-147.88
2022-12-19T21:09:12.518Z,-147.88
2022-12-19T21:11:39.436Z,-147.88
2022-12-19T21:14:08.003Z,-147.88
2022-12-19T21:16:36.900Z,-147.88
2022-12-19T21:19:04.394Z,-147.88
2022-12-19T21:21:31.173Z,-147.88
2022-12-19T21:23:58.007Z,-147.88
2022-12-19T21:26:26.021Z,-147.88
2022-12-19T21:28:53.890Z,-147.88
2022-12-19T21:31:25.055Z,-147.88
2022-12-19T21:33:54.847Z,-147.88
2022-12-19T21:36:23.174Z,-147.88
2022-12-19T21:38:53.352Z,-147.88
2022-12-19T21:41:20.544Z,-147.88
2022-12-19T21:43:48.959Z,-147.88
2022-12-19T21:46:17.779Z,-147.88
2022-12-19T21:48:47.889Z,-147.88
2022-12-19T21:51:16.248Z,-147.88
2022-12-19T21:53:43.123Z,-147.88
2022-12-19T21:56:22.437Z,-147.88
2022-12-19T21:58:50.295Z,-147.88
2022-12-19T22:01:17.222Z,-147.88
2022-12-19T22:03:45.797Z,-147.88
2022-12-19T22:06:17.987Z,-147.88
2022-12-19T22:08:48.360Z,-147.88
2022-12-19T22:11:17.207Z,-147.88
2022-12-19T22:13:45.739Z,-147.88
2022-12-19T22:16:13.254Z,-147.88
2022-12-19T22:18:41.160Z,-147.88
2022-12-19T22:21:11.727Z,-147.88
2022-12-19T22:23:38.809Z,-147.88
2022-12-19T22:26:07.755Z,-147.88
2022-12-19T22:28:36.582Z,-147.88
2022-12-19T22:31:04.947Z,-147.88
2022-12-19T22:33:33.045Z,-147.88
2022-12-19T22:36:05.455Z,-147.88
2022-12-19T22:38:33.499Z,-147.88
2022-12-19T22:41:04.008Z,-147.88
2022-12-19T22:43:30.998Z,-147.88
2022-12-19T22:45:58.549Z,-147.88
2022-12-19T22:48:25.404Z,-147.88
2022-12-19T22:50:52.055Z,-147.88
2022-12-19T22:53:18.788Z,-147.88
2022-12-19T22:55:46.749Z,-147.88
2022-12-19T22:58:13.969Z,-147.88
2022-12-19T23:00:42.032Z,-147.88
2022-12-19T23:03:08.985Z,-147.88
2022-12-19T23:05:36.159Z,-147.88
2022-12-19T23:08:03.293Z,-147.88
2022-12-19T23:10:30.137Z,-147.88
2022-12-19T23:12:58.241Z,-147.88
2022-12-19T23:15:24.960Z,-147.88
2022-12-19T23:17:51.613Z,-147.88
2022-12-19T23:20:18.423Z,-147.88
2022-12-19T23:22:45.204Z,-147.88
2022-12-19T23:25:11.986Z,-147.88
2022-12-19T23:27:40.752Z,-147.88
2022-12-19T23:30:09.850Z,-147.88
2022-12-19T23:32:36.609Z,-147.88
2022-12-19T23:35:03.324Z,-147.88
2022-12-19T23:37:30.033Z,-147.88
2022-12-19T23:39:57.587Z,-147.88
2022-12-19T23:42:24.305Z,-147.88
2022-12-19T23:44:51.324Z,-147.88
2022-12-19T23:47:19.355Z,-147.88
2022-12-19T23:49:46.040Z,-147.88
2022-12-19T23:52:12.878Z,-147.88
2022-12-19T23:54:39.509Z,-147.88
2022-12-19T23:57:06.168Z,-147.88
2022-12-19T23:59:32.851Z,-147.88
